Weather at Kake Airport

Public forecast

Using degrees Fahrenheit for public forecast. Weather courtesy of forecast.io.

Current aviation weather report (METAR) for Kake Airport

Retrieved 2020/10/23 10:56 UTC (16 minutes ago):

PAFE 231056Z AUTO VRB06G15KT 10SM CLR 01/M09 A3033 RMK AO2 SLP283 T00061089 FZRANO

Closest aviation forecast (TAF) to Kake Airport

Closest forecast is Petersburg James A Johnson Airport, 33.1 nm (61.3 km) ESE. Retrieved 2020/10/23 06:28 UTC (5 hours ago):

TAF PAPG 230526Z 2306/2406 VRB05KT P6SM BKN100 FM231900 05009KT P6SM FEW100 FM240300 20004KT P6SM SKC AMD LTD TO CLD VIS AND WIND 2306/2315